sensor_id;sensor_type;location;lat;lon;timestamp;P1;durP1;ratioP1;P2;durP2;ratioP2
67442;SDS011;54311;51.726;5.154;2023-06-14T00:00:43;7.82;;;4.90;;
67442;SDS011;54311;51.726;5.154;2023-06-14T00:03:09;7.80;;;5.05;;
67442;SDS011;54311;51.726;5.154;2023-06-14T00:05:37;11.38;;;5.57;;
67442;SDS011;54311;51.726;5.154;2023-06-14T00:08:08;8.90;;;4.78;;
67442;SDS011;54311;51.726;5.154;2023-06-14T00:10:34;14.18;;;5.53;;
67442;SDS011;54311;51.726;5.154;2023-06-14T00:13:01;8.93;;;5.65;;
67442;SDS011;54311;51.726;5.154;2023-06-14T00:15:27;6.55;;;5.40;;
67442;SDS011;54311;51.726;5.154;2023-06-14T00:17:53;6.72;;;5.43;;
67442;SDS011;54311;51.726;5.154;2023-06-14T00:20:19;6.07;;;5.53;;
67442;SDS011;54311;51.726;5.154;2023-06-14T00:22:45;5.95;;;5.00;;
67442;SDS011;54311;51.726;5.154;2023-06-14T00:25:11;5.50;;;5.00;;
67442;SDS011;54311;51.726;5.154;2023-06-14T00:27:36;5.28;;;4.80;;
67442;SDS011;54311;51.726;5.154;2023-06-14T00:30:01;9.20;;;5.25;;
67442;SDS011;54311;51.726;5.154;2023-06-14T00:32:27;6.18;;;5.07;;
67442;SDS011;54311;51.726;5.154;2023-06-14T00:34:52;6.15;;;5.32;;
67442;SDS011;54311;51.726;5.154;2023-06-14T00:37:18;8.73;;;5.20;;
67442;SDS011;54311;51.726;5.154;2023-06-14T00:39:43;6.60;;;5.90;;
67442;SDS011;54311;51.726;5.154;2023-06-14T00:42:08;6.50;;;6.00;;
67442;SDS011;54311;51.726;5.154;2023-06-14T00:44:34;8.48;;;5.80;;
67442;SDS011;54311;51.726;5.154;2023-06-14T00:46:59;11.40;;;5.32;;
67442;SDS011;54311;51.726;5.154;2023-06-14T00:49:24;9.63;;;5.70;;
67442;SDS011;54311;51.726;5.154;2023-06-14T00:51:50;7.88;;;5.68;;
67442;SDS011;54311;51.726;5.154;2023-06-14T00:54:16;11.80;;;5.65;;
67442;SDS011;54311;51.726;5.154;2023-06-14T00:56:41;7.47;;;5.72;;
67442;SDS011;54311;51.726;5.154;2023-06-14T00:59:07;6.72;;;5.35;;
67442;SDS011;54311;51.726;5.154;2023-06-14T01:01:32;8.43;;;5.57;;
67442;SDS011;54311;51.726;5.154;2023-06-14T01:03:58;10.90;;;5.55;;
67442;SDS011;54311;51.726;5.154;2023-06-14T01:11:32;6.53;;;5.30;;
67442;SDS011;54311;51.726;5.154;2023-06-14T01:14:03;11.02;;;5.38;;
67442;SDS011;54311;51.726;5.154;2023-06-14T01:16:29;9.77;;;6.47;;
67442;SDS011;54311;51.726;5.154;2023-06-14T01:18:56;9.98;;;5.72;;
67442;SDS011;54311;51.726;5.154;2023-06-14T01:21:23;6.25;;;5.68;;
67442;SDS011;54311;51.726;5.154;2023-06-14T01:23:49;5.55;;;5.15;;
67442;SDS011;54311;51.726;5.154;2023-06-14T01:26:26;7.30;;;5.40;;
67442;SDS011;54311;51.726;5.154;2023-06-14T01:28:54;10.38;;;5.50;;
67442;SDS011;54311;51.726;5.154;2023-06-14T01:31:23;8.75;;;6.00;;
67442;SDS011;54311;51.726;5.154;2023-06-14T01:33:49;5.97;;;4.97;;
67442;SDS011;54311;51.726;5.154;2023-06-14T01:36:16;6.63;;;4.72;;
67442;SDS011;54311;51.726;5.154;2023-06-14T01:38:42;8.80;;;5.25;;
67442;SDS011;54311;51.726;5.154;2023-06-14T01:41:08;11.43;;;5.32;;
67442;SDS011;54311;51.726;5.154;2023-06-14T01:43:34;9.32;;;4.80;;
67442;SDS011;54311;51.726;5.154;2023-06-14T01:45:59;5.43;;;4.88;;
67442;SDS011;54311;51.726;5.154;2023-06-14T01:48:25;5.40;;;4.97;;
67442;SDS011;54311;51.726;5.154;2023-06-14T01:50:51;13.38;;;5.43;;
67442;SDS011;54311;51.726;5.154;2023-06-14T01:53:17;6.05;;;4.70;;
67442;SDS011;54311;51.726;5.154;2023-06-14T01:55:42;12.55;;;5.50;;
67442;SDS011;54311;51.726;5.154;2023-06-14T01:58:09;10.80;;;5.68;;
67442;SDS011;54311;51.726;5.154;2023-06-14T02:00:35;6.63;;;4.75;;
67442;SDS011;54311;51.726;5.154;2023-06-14T02:03:01;8.13;;;4.82;;
67442;SDS011;54311;51.726;5.154;2023-06-14T02:05:28;5.80;;;5.13;;
67442;SDS011;54311;51.726;5.154;2023-06-14T02:07:55;11.60;;;5.40;;
67442;SDS011;54311;51.726;5.154;2023-06-14T02:10:20;9.55;;;5.60;;
67442;SDS011;54311;51.726;5.154;2023-06-14T02:12:45;6.13;;;4.72;;
67442;SDS011;54311;51.726;5.154;2023-06-14T02:15:11;6.55;;;5.00;;
67442;SDS011;54311;51.726;5.154;2023-06-14T02:17:41;7.90;;;5.18;;
67442;SDS011;54311;51.726;5.154;2023-06-14T02:20:16;5.25;;;4.85;;
67442;SDS011;54311;51.726;5.154;2023-06-14T02:22:41;7.28;;;5.35;;
67442;SDS011;54311;51.726;5.154;2023-06-14T02:25:07;5.45;;;4.95;;
67442;SDS011;54311;51.726;5.154;2023-06-14T02:27:33;6.15;;;4.88;;
67442;SDS011;54311;51.726;5.154;2023-06-14T02:29:59;6.25;;;5.50;;
67442;SDS011;54311;51.726;5.154;2023-06-14T02:32:25;7.65;;;5.00;;
67442;SDS011;54311;51.726;5.154;2023-06-14T02:34:52;6.47;;;5.20;;
67442;SDS011;54311;51.726;5.154;2023-06-14T02:37:18;10.55;;;5.10;;
67442;SDS011;54311;51.726;5.154;2023-06-14T02:39:43;7.72;;;5.25;;
67442;SDS011;54311;51.726;5.154;2023-06-14T02:42:09;8.13;;;5.47;;
67442;SDS011;54311;51.726;5.154;2023-06-14T02:44:35;7.03;;;4.80;;
67442;SDS011;54311;51.726;5.154;2023-06-14T02:47:00;6.05;;;4.93;;
67442;SDS011;54311;51.726;5.154;2023-06-14T02:49:26;6.43;;;5.18;;
67442;SDS011;54311;51.726;5.154;2023-06-14T02:51:51;10.50;;;5.22;;
67442;SDS011;54311;51.726;5.154;2023-06-14T02:54:17;9.07;;;5.20;;
67442;SDS011;54311;51.726;5.154;2023-06-14T02:56:42;6.00;;;5.15;;
67442;SDS011;54311;51.726;5.154;2023-06-14T02:59:08;5.90;;;5.35;;
67442;SDS011;54311;51.726;5.154;2023-06-14T03:01:34;5.85;;;5.38;;
67442;SDS011;54311;51.726;5.154;2023-06-14T03:04:00;10.68;;;5.35;;
67442;SDS011;54311;51.726;5.154;2023-06-14T03:06:27;8.43;;;5.22;;
67442;SDS011;54311;51.726;5.154;2023-06-14T03:08:55;7.47;;;5.60;;
67442;SDS011;54311;51.726;5.154;2023-06-14T03:11:22;8.18;;;5.57;;
67442;SDS011;54311;51.726;5.154;2023-06-14T03:13:47;5.93;;;5.38;;
67442;SDS011;54311;51.726;5.154;2023-06-14T03:16:12;6.50;;;5.88;;
67442;SDS011;54311;51.726;5.154;2023-06-14T03:18:38;12.38;;;5.75;;
67442;SDS011;54311;51.726;5.154;2023-06-14T03:21:03;9.90;;;5.68;;
67442;SDS011;54311;51.726;5.154;2023-06-14T03:23:28;6.85;;;5.13;;
67442;SDS011;54311;51.726;5.154;2023-06-14T03:25:54;6.43;;;5.50;;
67442;SDS011;54311;51.726;5.154;2023-06-14T03:28:20;7.20;;;5.70;;
67442;SDS011;54311;51.726;5.154;2023-06-14T03:30:46;8.75;;;5.28;;
67442;SDS011;54311;51.726;5.154;2023-06-14T03:33:11;7.70;;;5.65;;
67442;SDS011;54311;51.726;5.154;2023-06-14T03:35:37;15.23;;;5.15;;
67442;SDS011;54311;51.726;5.154;2023-06-14T03:38:02;10.82;;;5.35;;
67442;SDS011;54311;51.726;5.154;2023-06-14T03:40:28;8.52;;;5.13;;
67442;SDS011;54311;51.726;5.154;2023-06-14T03:42:54;11.82;;;5.15;;
67442;SDS011;54311;51.726;5.154;2023-06-14T03:45:20;6.38;;;4.90;;
67442;SDS011;54311;51.726;5.154;2023-06-14T03:47:46;8.10;;;5.38;;
67442;SDS011;54311;51.726;5.154;2023-06-14T03:50:11;10.40;;;5.57;;
67442;SDS011;54311;51.726;5.154;2023-06-14T03:52:37;9.18;;;6.38;;
67442;SDS011;54311;51.726;5.154;2023-06-14T03:55:02;7.90;;;5.68;;
67442;SDS011;54311;51.726;5.154;2023-06-14T03:57:29;6.28;;;5.68;;
67442;SDS011;54311;51.726;5.154;2023-06-14T03:59:54;6.68;;;5.07;;
67442;SDS011;54311;51.726;5.154;2023-06-14T04:02:20;9.80;;;5.85;;
67442;SDS011;54311;51.726;5.154;2023-06-14T04:04:45;9.35;;;5.22;;
67442;SDS011;54311;51.726;5.154;2023-06-14T04:07:11;13.45;;;4.93;;
67442;SDS011;54311;51.726;5.154;2023-06-14T04:09:39;5.78;;;5.13;;
67442;SDS011;54311;51.726;5.154;2023-06-14T04:12:05;5.65;;;5.18;;
67442;SDS011;54311;51.726;5.154;2023-06-14T04:14:31;6.72;;;5.25;;
67442;SDS011;54311;51.726;5.154;2023-06-14T04:16:57;7.85;;;5.20;;
67442;SDS011;54311;51.726;5.154;2023-06-14T04:19:23;7.00;;;5.03;;
67442;SDS011;54311;51.726;5.154;2023-06-14T04:21:48;5.55;;;4.97;;
67442;SDS011;54311;51.726;5.154;2023-06-14T04:24:14;12.15;;;5.05;;
67442;SDS011;54311;51.726;5.154;2023-06-14T04:26:39;5.60;;;5.10;;
67442;SDS011;54311;51.726;5.154;2023-06-14T04:29:06;5.75;;;5.25;;
67442;SDS011;54311;51.726;5.154;2023-06-14T04:31:31;5.57;;;5.07;;
67442;SDS011;54311;51.726;5.154;2023-06-14T04:34:02;7.80;;;4.97;;
67442;SDS011;54311;51.726;5.154;2023-06-14T04:36:30;7.80;;;5.13;;
67442;SDS011;54311;51.726;5.154;2023-06-14T04:38:59;8.32;;;4.55;;
67442;SDS011;54311;51.726;5.154;2023-06-14T04:41:25;6.03;;;5.43;;
67442;SDS011;54311;51.726;5.154;2023-06-14T04:43:55;7.63;;;5.13;;
67442;SDS011;54311;51.726;5.154;2023-06-14T04:46:22;8.63;;;4.78;;
67442;SDS011;54311;51.726;5.154;2023-06-14T04:48:47;9.88;;;4.70;;
67442;SDS011;54311;51.726;5.154;2023-06-14T04:51:15;13.02;;;4.90;;
67442;SDS011;54311;51.726;5.154;2023-06-14T04:53:41;8.07;;;5.38;;
67442;SDS011;54311;51.726;5.154;2023-06-14T04:56:06;8.23;;;5.30;;
67442;SDS011;54311;51.726;5.154;2023-06-14T04:58:32;8.30;;;5.50;;
67442;SDS011;54311;51.726;5.154;2023-06-14T05:00:57;11.90;;;5.00;;
67442;SDS011;54311;51.726;5.154;2023-06-14T05:03:24;9.60;;;5.05;;
67442;SDS011;54311;51.726;5.154;2023-06-14T05:05:50;5.93;;;4.45;;
67442;SDS011;54311;51.726;5.154;2023-06-14T05:08:15;6.68;;;4.93;;
67442;SDS011;54311;51.726;5.154;2023-06-14T05:10:41;10.15;;;4.60;;
67442;SDS011;54311;51.726;5.154;2023-06-14T05:13:06;10.95;;;4.95;;
67442;SDS011;54311;51.726;5.154;2023-06-14T05:15:31;5.05;;;4.65;;
67442;SDS011;54311;51.726;5.154;2023-06-14T05:17:57;17.05;;;5.43;;
67442;SDS011;54311;51.726;5.154;2023-06-14T05:20:23;11.40;;;5.43;;
67442;SDS011;54311;51.726;5.154;2023-06-14T05:22:49;17.40;;;4.85;;
67442;SDS011;54311;51.726;5.154;2023-06-14T05:25:18;19.92;;;5.32;;
67442;SDS011;54311;51.726;5.154;2023-06-14T05:27:47;11.45;;;5.03;;
67442;SDS011;54311;51.726;5.154;2023-06-14T05:30:13;5.45;;;5.05;;
67442;SDS011;54311;51.726;5.154;2023-06-14T05:32:39;5.47;;;4.93;;
67442;SDS011;54311;51.726;5.154;2023-06-14T05:35:05;10.73;;;5.40;;
67442;SDS011;54311;51.726;5.154;2023-06-14T05:37:31;8.88;;;5.82;;
67442;SDS011;54311;51.726;5.154;2023-06-14T05:39:56;6.72;;;5.30;;
67442;SDS011;54311;51.726;5.154;2023-06-14T05:42:22;13.23;;;4.82;;
67442;SDS011;54311;51.726;5.154;2023-06-14T05:44:47;9.95;;;4.78;;
67442;SDS011;54311;51.726;5.154;2023-06-14T05:47:13;8.88;;;4.90;;
67442;SDS011;54311;51.726;5.154;2023-06-14T05:49:38;8.75;;;4.95;;
67442;SDS011;54311;51.726;5.154;2023-06-14T05:52:03;12.48;;;4.72;;
67442;SDS011;54311;51.726;5.154;2023-06-14T05:54:30;14.68;;;5.25;;
67442;SDS011;54311;51.726;5.154;2023-06-14T05:56:55;12.30;;;5.25;;
67442;SDS011;54311;51.726;5.154;2023-06-14T05:59:20;15.07;;;5.30;;
67442;SDS011;54311;51.726;5.154;2023-06-14T06:01:46;19.52;;;5.13;;
67442;SDS011;54311;51.726;5.154;2023-06-14T06:04:11;10.40;;;5.35;;
67442;SDS011;54311;51.726;5.154;2023-06-14T06:06:46;5.78;;;5.18;;
67442;SDS011;54311;51.726;5.154;2023-06-14T06:09:12;12.23;;;5.05;;
67442;SDS011;54311;51.726;5.154;2023-06-14T06:11:39;7.97;;;4.97;;
67442;SDS011;54311;51.726;5.154;2023-06-14T06:14:05;10.23;;;5.53;;
67442;SDS011;54311;51.726;5.154;2023-06-14T06:16:30;5.43;;;4.95;;
67442;SDS011;54311;51.726;5.154;2023-06-14T06:18:55;9.55;;;4.90;;
67442;SDS011;54311;51.726;5.154;2023-06-14T06:21:21;11.30;;;4.88;;
67442;SDS011;54311;51.726;5.154;2023-06-14T06:23:46;8.32;;;5.43;;
67442;SDS011;54311;51.726;5.154;2023-06-14T06:29:35;17.92;;;5.88;;
67442;SDS011;54311;51.726;5.154;2023-06-14T06:32:00;16.20;;;5.22;;
67442;SDS011;54311;51.726;5.154;2023-06-14T06:34:26;9.73;;;5.07;;
67442;SDS011;54311;51.726;5.154;2023-06-14T06:36:52;11.20;;;5.53;;
67442;SDS011;54311;51.726;5.154;2023-06-14T06:39:17;5.90;;;4.90;;
67442;SDS011;54311;51.726;5.154;2023-06-14T06:41:43;10.02;;;5.32;;
67442;SDS011;54311;51.726;5.154;2023-06-14T06:44:08;8.18;;;5.40;;
67442;SDS011;54311;51.726;5.154;2023-06-14T06:46:35;9.20;;;5.72;;
67442;SDS011;54311;51.726;5.154;2023-06-14T06:49:04;10.10;;;5.28;;
67442;SDS011;54311;51.726;5.154;2023-06-14T06:51:30;13.30;;;5.25;;
67442;SDS011;54311;51.726;5.154;2023-06-14T06:53:55;11.68;;;5.03;;
67442;SDS011;54311;51.726;5.154;2023-06-14T06:56:21;10.02;;;5.90;;
67442;SDS011;54311;51.726;5.154;2023-06-14T06:58:48;11.85;;;4.80;;
67442;SDS011;54311;51.726;5.154;2023-06-14T07:01:16;8.25;;;5.10;;
67442;SDS011;54311;51.726;5.154;2023-06-14T07:03:42;14.35;;;5.28;;
67442;SDS011;54311;51.726;5.154;2023-06-14T07:06:08;8.80;;;5.22;;
67442;SDS011;54311;51.726;5.154;2023-06-14T07:08:33;11.85;;;4.85;;
67442;SDS011;54311;51.726;5.154;2023-06-14T07:10:59;11.98;;;5.80;;
67442;SDS011;54311;51.726;5.154;2023-06-14T07:13:24;9.38;;;4.97;;
67442;SDS011;54311;51.726;5.154;2023-06-14T07:15:50;6.97;;;5.03;;
67442;SDS011;54311;51.726;5.154;2023-06-14T07:18:18;13.80;;;4.65;;
67442;SDS011;54311;51.726;5.154;2023-06-14T07:20:43;10.88;;;4.57;;
67442;SDS011;54311;51.726;5.154;2023-06-14T07:23:09;7.35;;;4.70;;
67442;SDS011;54311;51.726;5.154;2023-06-14T07:25:34;7.13;;;4.60;;
67442;SDS011;54311;51.726;5.154;2023-06-14T07:27:59;6.38;;;4.80;;
67442;SDS011;54311;51.726;5.154;2023-06-14T07:30:25;11.70;;;5.25;;
67442;SDS011;54311;51.726;5.154;2023-06-14T07:32:52;10.05;;;5.00;;
67442;SDS011;54311;51.726;5.154;2023-06-14T07:35:18;9.27;;;4.60;;
67442;SDS011;54311;51.726;5.154;2023-06-14T07:37:43;15.95;;;4.75;;
67442;SDS011;54311;51.726;5.154;2023-06-14T07:40:09;5.70;;;5.13;;
67442;SDS011;54311;51.726;5.154;2023-06-14T07:42:35;5.75;;;4.93;;
67442;SDS011;54311;51.726;5.154;2023-06-14T07:45:01;6.95;;;4.93;;
67442;SDS011;54311;51.726;5.154;2023-06-14T07:47:27;7.25;;;4.30;;
67442;SDS011;54311;51.726;5.154;2023-06-14T07:49:52;6.80;;;4.45;;
67442;SDS011;54311;51.726;5.154;2023-06-14T07:52:17;11.40;;;4.80;;
67442;SDS011;54311;51.726;5.154;2023-06-14T07:54:43;4.78;;;4.38;;
67442;SDS011;54311;51.726;5.154;2023-06-14T07:57:08;11.73;;;4.60;;
67442;SDS011;54311;51.726;5.154;2023-06-14T07:59:36;5.53;;;4.07;;
67442;SDS011;54311;51.726;5.154;2023-06-14T08:02:01;4.78;;;4.35;;
67442;SDS011;54311;51.726;5.154;2023-06-14T08:04:26;9.90;;;4.30;;
67442;SDS011;54311;51.726;5.154;2023-06-14T08:06:52;6.38;;;4.13;;
67442;SDS011;54311;51.726;5.154;2023-06-14T08:09:17;8.30;;;4.00;;
67442;SDS011;54311;51.726;5.154;2023-06-14T08:11:43;4.55;;;4.15;;
67442;SDS011;54311;51.726;5.154;2023-06-14T08:14:08;6.40;;;4.72;;
67442;SDS011;54311;51.726;5.154;2023-06-14T08:16:33;5.93;;;4.05;;
67442;SDS011;54311;51.726;5.154;2023-06-14T08:18:59;8.38;;;3.78;;
67442;SDS011;54311;51.726;5.154;2023-06-14T08:21:24;11.00;;;3.85;;
67442;SDS011;54311;51.726;5.154;2023-06-14T08:23:52;5.05;;;3.45;;
67442;SDS011;54311;51.726;5.154;2023-06-14T08:26:18;14.90;;;4.20;;
67442;SDS011;54311;51.726;5.154;2023-06-14T08:28:43;4.45;;;3.50;;
67442;SDS011;54311;51.726;5.154;2023-06-14T08:31:09;6.32;;;3.78;;
67442;SDS011;54311;51.726;5.154;2023-06-14T08:33:34;5.22;;;3.40;;
67442;SDS011;54311;51.726;5.154;2023-06-14T08:35:59;12.35;;;3.60;;
67442;SDS011;54311;51.726;5.154;2023-06-14T08:38:24;11.50;;;3.60;;
67442;SDS011;54311;51.726;5.154;2023-06-14T08:40:50;3.60;;;3.30;;
67442;SDS011;54311;51.726;5.154;2023-06-14T08:43:16;11.55;;;3.55;;
67442;SDS011;54311;51.726;5.154;2023-06-14T08:45:41;10.55;;;3.45;;
67442;SDS011;54311;51.726;5.154;2023-06-14T08:48:07;6.03;;;3.50;;
67442;SDS011;54311;51.726;5.154;2023-06-14T08:50:33;11.82;;;3.33;;
67442;SDS011;54311;51.726;5.154;2023-06-14T08:53:00;8.10;;;3.05;;
67442;SDS011;54311;51.726;5.154;2023-06-14T08:55:27;4.97;;;3.38;;
67442;SDS011;54311;51.726;5.154;2023-06-14T08:57:54;5.70;;;3.20;;
67442;SDS011;54311;51.726;5.154;2023-06-14T09:00:22;12.13;;;3.92;;
67442;SDS011;54311;51.726;5.154;2023-06-14T09:02:49;3.38;;;3.08;;
67442;SDS011;54311;51.726;5.154;2023-06-14T09:05:15;12.18;;;4.32;;
67442;SDS011;54311;51.726;5.154;2023-06-14T09:07:43;9.52;;;3.03;;
67442;SDS011;54311;51.726;5.154;2023-06-14T09:10:09;8.18;;;3.20;;
67442;SDS011;54311;51.726;5.154;2023-06-14T09:12:39;4.88;;;3.13;;
67442;SDS011;54311;51.726;5.154;2023-06-14T09:15:04;4.15;;;2.83;;
67442;SDS011;54311;51.726;5.154;2023-06-14T09:17:49;12.63;;;3.38;;
67442;SDS011;54311;51.726;5.154;2023-06-14T09:20:14;2.72;;;2.53;;
67442;SDS011;54311;51.726;5.154;2023-06-14T09:22:43;4.60;;;2.58;;
67442;SDS011;54311;51.726;5.154;2023-06-14T09:25:09;5.95;;;2.80;;
67442;SDS011;54311;51.726;5.154;2023-06-14T09:27:35;7.10;;;2.92;;
67442;SDS011;54311;51.726;5.154;2023-06-14T09:30:03;4.00;;;2.40;;
67442;SDS011;54311;51.726;5.154;2023-06-14T09:32:30;2.90;;;2.42;;
67442;SDS011;54311;51.726;5.154;2023-06-14T09:34:55;5.22;;;2.30;;
67442;SDS011;54311;51.726;5.154;2023-06-14T09:37:28;4.88;;;2.40;;
67442;SDS011;54311;51.726;5.154;2023-06-14T09:39:54;4.95;;;2.45;;
67442;SDS011;54311;51.726;5.154;2023-06-14T09:42:19;7.93;;;2.30;;
67442;SDS011;54311;51.726;5.154;2023-06-14T09:44:48;6.00;;;2.25;;
67442;SDS011;54311;51.726;5.154;2023-06-14T09:50:23;2.78;;;2.38;;
67442;SDS011;54311;51.726;5.154;2023-06-14T09:52:48;5.47;;;1.88;;
67442;SDS011;54311;51.726;5.154;2023-06-14T09:55:16;4.07;;;2.00;;
67442;SDS011;54311;51.726;5.154;2023-06-14T09:57:41;2.03;;;1.90;;
67442;SDS011;54311;51.726;5.154;2023-06-14T10:00:09;4.32;;;1.92;;
67442;SDS011;54311;51.726;5.154;2023-06-14T10:02:37;2.10;;;1.35;;
67442;SDS011;54311;51.726;5.154;2023-06-14T10:05:07;6.40;;;1.80;;
67442;SDS011;54311;51.726;5.154;2023-06-14T10:07:40;1.83;;;1.63;;
67442;SDS011;54311;51.726;5.154;2023-06-14T10:10:07;3.38;;;1.45;;
67442;SDS011;54311;51.726;5.154;2023-06-14T10:12:33;4.13;;;1.80;;
67442;SDS011;54311;51.726;5.154;2023-06-14T10:14:59;4.93;;;1.70;;
67442;SDS011;54311;51.726;5.154;2023-06-14T10:20:38;1.95;;;1.77;;
67442;SDS011;54311;51.726;5.154;2023-06-14T10:23:16;3.38;;;1.70;;
67442;SDS011;54311;51.726;5.154;2023-06-14T10:25:44;1.85;;;1.67;;
67442;SDS011;54311;51.726;5.154;2023-06-14T10:28:14;7.50;;;1.80;;
67442;SDS011;54311;51.726;5.154;2023-06-14T10:33:30;1.58;;;1.48;;
67442;SDS011;54311;51.726;5.154;2023-06-14T10:41:26;6.38;;;1.58;;
67442;SDS011;54311;51.726;5.154;2023-06-14T10:44:00;7.00;;;1.90;;
67442;SDS011;54311;51.726;5.154;2023-06-14T10:46:35;4.40;;;1.85;;
67442;SDS011;54311;51.726;5.154;2023-06-14T10:49:00;1.98;;;1.85;;
67442;SDS011;54311;51.726;5.154;2023-06-14T10:51:29;3.03;;;1.80;;
67442;SDS011;54311;51.726;5.154;2023-06-14T10:53:55;6.85;;;2.13;;
67442;SDS011;54311;51.726;5.154;2023-06-14T10:56:30;2.25;;;1.73;;
67442;SDS011;54311;51.726;5.154;2023-06-14T10:58:57;2.20;;;2.00;;
67442;SDS011;54311;51.726;5.154;2023-06-14T11:01:31;1.98;;;1.88;;
67442;SDS011;54311;51.726;5.154;2023-06-14T11:04:06;3.13;;;2.30;;
67442;SDS011;54311;51.726;5.154;2023-06-14T11:06:39;2.28;;;1.98;;
67442;SDS011;54311;51.726;5.154;2023-06-14T11:09:34;4.93;;;1.80;;
67442;SDS011;54311;51.726;5.154;2023-06-14T11:12:10;4.18;;;1.95;;
67442;SDS011;54311;51.726;5.154;2023-06-14T11:14:39;6.18;;;1.98;;
67442;SDS011;54311;51.726;5.154;2023-06-14T11:17:05;2.97;;;1.90;;
67442;SDS011;54311;51.726;5.154;2023-06-14T11:19:30;2.05;;;1.95;;
67442;SDS011;54311;51.726;5.154;2023-06-14T11:21:56;1.80;;;1.70;;
67442;SDS011;54311;51.726;5.154;2023-06-14T11:24:22;3.65;;;2.05;;
67442;SDS011;54311;51.726;5.154;2023-06-14T11:26:47;3.67;;;2.10;;
67442;SDS011;54311;51.726;5.154;2023-06-14T11:29:14;4.75;;;1.85;;
67442;SDS011;54311;51.726;5.154;2023-06-14T11:31:43;3.28;;;1.70;;
67442;SDS011;54311;51.726;5.154;2023-06-14T11:34:09;2.22;;;1.92;;
67442;SDS011;54311;51.726;5.154;2023-06-14T11:36:35;3.22;;;1.83;;
67442;SDS011;54311;51.726;5.154;2023-06-14T11:39:04;3.53;;;1.77;;
67442;SDS011;54311;51.726;5.154;2023-06-14T11:41:37;5.03;;;2.07;;
67442;SDS011;54311;51.726;5.154;2023-06-14T11:44:04;4.15;;;1.90;;
67442;SDS011;54311;51.726;5.154;2023-06-14T11:46:30;2.90;;;1.60;;
67442;SDS011;54311;51.726;5.154;2023-06-14T11:48:56;5.38;;;2.47;;
67442;SDS011;54311;51.726;5.154;2023-06-14T11:51:21;2.72;;;1.70;;
67442;SDS011;54311;51.726;5.154;2023-06-14T11:53:47;4.50;;;1.90;;
67442;SDS011;54311;51.726;5.154;2023-06-14T11:56:12;7.10;;;1.77;;
67442;SDS011;54311;51.726;5.154;2023-06-14T11:58:38;4.13;;;1.80;;
67442;SDS011;54311;51.726;5.154;2023-06-14T12:01:04;2.15;;;1.95;;
67442;SDS011;54311;51.726;5.154;2023-06-14T12:03:29;6.53;;;1.55;;
67442;SDS011;54311;51.726;5.154;2023-06-14T12:08:33;2.03;;;1.73;;
67442;SDS011;54311;51.726;5.154;2023-06-14T12:11:03;2.88;;;2.10;;
67442;SDS011;54311;51.726;5.154;2023-06-14T12:13:30;5.93;;;1.85;;
67442;SDS011;54311;51.726;5.154;2023-06-14T12:15:56;6.97;;;2.00;;
67442;SDS011;54311;51.726;5.154;2023-06-14T12:18:31;6.30;;;1.95;;
67442;SDS011;54311;51.726;5.154;2023-06-14T12:20:58;5.53;;;1.88;;
67442;SDS011;54311;51.726;5.154;2023-06-14T12:23:37;2.70;;;1.80;;
67442;SDS011;54311;51.726;5.154;2023-06-14T12:26:12;5.53;;;1.80;;
67442;SDS011;54311;51.726;5.154;2023-06-14T12:28:41;4.80;;;1.80;;
67442;SDS011;54311;51.726;5.154;2023-06-14T12:31:08;4.22;;;2.20;;
67442;SDS011;54311;51.726;5.154;2023-06-14T12:33:33;6.63;;;2.42;;
67442;SDS011;54311;51.726;5.154;2023-06-14T12:35:59;3.45;;;2.17;;
67442;SDS011;54311;51.726;5.154;2023-06-14T12:38:24;1.80;;;1.70;;
67442;SDS011;54311;51.726;5.154;2023-06-14T12:40:50;2.35;;;1.75;;
67442;SDS011;54311;51.726;5.154;2023-06-14T12:43:15;3.78;;;1.92;;
67442;SDS011;54311;51.726;5.154;2023-06-14T12:45:40;2.90;;;1.90;;
67442;SDS011;54311;51.726;5.154;2023-06-14T12:48:06;2.00;;;1.90;;
67442;SDS011;54311;51.726;5.154;2023-06-14T12:50:33;3.00;;;2.15;;
67442;SDS011;54311;51.726;5.154;2023-06-14T12:52:58;2.42;;;1.80;;
67442;SDS011;54311;51.726;5.154;2023-06-14T12:55:24;3.75;;;2.03;;
67442;SDS011;54311;51.726;5.154;2023-06-14T12:57:49;1.90;;;1.80;;
67442;SDS011;54311;51.726;5.154;2023-06-14T13:00:16;3.08;;;1.90;;
67442;SDS011;54311;51.726;5.154;2023-06-14T13:02:43;2.20;;;1.70;;
67442;SDS011;54311;51.726;5.154;2023-06-14T13:05:08;6.88;;;2.83;;
67442;SDS011;54311;51.726;5.154;2023-06-14T13:07:34;6.68;;;2.20;;
67442;SDS011;54311;51.726;5.154;2023-06-14T13:10:00;9.85;;;2.10;;
67442;SDS011;54311;51.726;5.154;2023-06-14T13:12:25;4.32;;;2.47;;
67442;SDS011;54311;51.726;5.154;2023-06-14T13:14:50;6.88;;;1.92;;
67442;SDS011;54311;51.726;5.154;2023-06-14T13:17:16;6.88;;;2.08;;
67442;SDS011;54311;51.726;5.154;2023-06-14T13:19:41;5.33;;;1.90;;
67442;SDS011;54311;51.726;5.154;2023-06-14T13:22:07;4.32;;;1.98;;
67442;SDS011;54311;51.726;5.154;2023-06-14T13:24:33;2.17;;;1.95;;
67442;SDS011;54311;51.726;5.154;2023-06-14T13:26:58;2.85;;;2.03;;
67442;SDS011;54311;51.726;5.154;2023-06-14T13:29:24;2.22;;;1.92;;
67442;SDS011;54311;51.726;5.154;2023-06-14T13:31:49;1.83;;;1.73;;
67442;SDS011;54311;51.726;5.154;2023-06-14T13:34:15;4.97;;;2.05;;
67442;SDS011;54311;51.726;5.154;2023-06-14T13:36:40;2.28;;;2.08;;
67442;SDS011;54311;51.726;5.154;2023-06-14T13:39:06;7.95;;;2.10;;
67442;SDS011;54311;51.726;5.154;2023-06-14T13:41:31;2.33;;;2.13;;
67442;SDS011;54311;51.726;5.154;2023-06-14T13:43:59;2.83;;;2.05;;
67442;SDS011;54311;51.726;5.154;2023-06-14T13:46:25;1.90;;;1.65;;
67442;SDS011;54311;51.726;5.154;2023-06-14T13:48:50;7.47;;;2.38;;
67442;SDS011;54311;51.726;5.154;2023-06-14T13:51:17;10.05;;;2.15;;
67442;SDS011;54311;51.726;5.154;2023-06-14T13:53:45;3.40;;;2.30;;
67442;SDS011;54311;51.726;5.154;2023-06-14T13:56:11;1.88;;;1.77;;
67442;SDS011;54311;51.726;5.154;2023-06-14T13:58:37;7.38;;;2.15;;
67442;SDS011;54311;51.726;5.154;2023-06-14T14:01:03;7.18;;;1.95;;
67442;SDS011;54311;51.726;5.154;2023-06-14T14:03:28;6.85;;;1.90;;
67442;SDS011;54311;51.726;5.154;2023-06-14T14:05:53;2.75;;;1.73;;
67442;SDS011;54311;51.726;5.154;2023-06-14T14:08:19;4.32;;;1.90;;
67442;SDS011;54311;51.726;5.154;2023-06-14T14:10:44;5.72;;;2.10;;
67442;SDS011;54311;51.726;5.154;2023-06-14T14:13:10;3.47;;;1.67;;
67442;SDS011;54311;51.726;5.154;2023-06-14T14:15:37;9.65;;;1.83;;
67442;SDS011;54311;51.726;5.154;2023-06-14T14:18:02;4.60;;;1.88;;
67442;SDS011;54311;51.726;5.154;2023-06-14T14:20:29;3.95;;;1.73;;
67442;SDS011;54311;51.726;5.154;2023-06-14T14:22:55;3.13;;;2.00;;
67442;SDS011;54311;51.726;5.154;2023-06-14T14:25:21;4.72;;;2.03;;
67442;SDS011;54311;51.726;5.154;2023-06-14T14:27:46;4.60;;;2.13;;
67442;SDS011;54311;51.726;5.154;2023-06-14T14:30:12;2.38;;;1.90;;
67442;SDS011;54311;51.726;5.154;2023-06-14T14:32:39;11.80;;;1.98;;
67442;SDS011;54311;51.726;5.154;2023-06-14T14:35:05;3.70;;;1.88;;
67442;SDS011;54311;51.726;5.154;2023-06-14T14:37:31;7.55;;;1.83;;
67442;SDS011;54311;51.726;5.154;2023-06-14T14:39:56;6.88;;;1.80;;
67442;SDS011;54311;51.726;5.154;2023-06-14T14:42:21;10.48;;;1.60;;
67442;SDS011;54311;51.726;5.154;2023-06-14T14:44:47;2.33;;;1.65;;
67442;SDS011;54311;51.726;5.154;2023-06-14T14:47:12;4.10;;;1.65;;
67442;SDS011;54311;51.726;5.154;2023-06-14T14:49:37;2.28;;;1.65;;
67442;SDS011;54311;51.726;5.154;2023-06-14T14:52:03;4.60;;;1.40;;
67442;SDS011;54311;51.726;5.154;2023-06-14T14:54:28;2.80;;;1.70;;
67442;SDS011;54311;51.726;5.154;2023-06-14T14:56:54;1.45;;;1.40;;
67442;SDS011;54311;51.726;5.154;2023-06-14T14:59:19;7.45;;;1.60;;
67442;SDS011;54311;51.726;5.154;2023-06-14T15:01:46;4.05;;;1.70;;
67442;SDS011;54311;51.726;5.154;2023-06-14T15:04:12;2.75;;;1.65;;
67442;SDS011;54311;51.726;5.154;2023-06-14T15:06:37;1.85;;;1.30;;